Albany, Wisconsin
Current Conditions -  °F | °C
As of 10:15 AM on Wednesday 26 Nov 2014 (Local Time) from KEFT Reporting Station
Haze Haze  
Wind Chill: -10°   Ceiling: 900
Heat Index: -6°   Visibility: 2.5mi
Dew Point: -7°   Wind: 6mph
Humidity: 93%   Direction: 90°E
Pressure: 30.12"   Gusts: NA
Location:  42.71°N, 89.44°W
Report Text: KEFT 261615Z AUTO 09005KT 2 1/2SM BR SCT003 OVC009 M06/M07 A3012 RMK AO2
Loading
Personal Weather Stations






























Interactive Weather Map New forecast layout! Learn more

10-Day Weather Forecast

Advertisements
Track Severe Weather on mobile